sensor_id;sensor_type;location;lat;lon;timestamp;pressure;altitude;pressure_sealevel;temperature;humidity
80482;BME280;69797;43.864;21.410;2023-07-13T00:00:26;99884.50;;;24.68;69.62
80482;BME280;69797;43.864;21.410;2023-07-13T00:02:53;99888.47;;;24.67;70.32
80482;BME280;69797;43.864;21.410;2023-07-13T00:05:21;99890.78;;;24.64;68.63
80482;BME280;69797;43.864;21.410;2023-07-13T00:07:51;99882.13;;;24.52;70.32
80482;BME280;69797;43.864;21.410;2023-07-13T00:10:18;99885.47;;;24.54;69.67
80482;BME280;69797;43.864;21.410;2023-07-13T00:12:45;99888.06;;;24.51;69.09
80482;BME280;69797;43.864;21.410;2023-07-13T00:15:20;99900.75;;;24.57;70.62
80482;BME280;69797;43.864;21.410;2023-07-13T00:17:51;99896.97;;;24.53;69.56
80482;BME280;69797;43.864;21.410;2023-07-13T00:20:19;99893.03;;;24.54;69.08
80482;BME280;69797;43.864;21.410;2023-07-13T00:22:49;99878.97;;;24.45;71.04
80482;BME280;69797;43.864;21.410;2023-07-13T00:25:16;99899.75;;;24.53;70.32
80482;BME280;69797;43.864;21.410;2023-07-13T00:27:44;99891.34;;;24.44;72.59
80482;BME280;69797;43.864;21.410;2023-07-13T00:30:11;99883.91;;;24.39;70.39
80482;BME280;69797;43.864;21.410;2023-07-13T00:32:38;99892.31;;;24.39;71.16
80482;BME280;69797;43.864;21.410;2023-07-13T00:35:05;99886.81;;;24.34;72.71
80482;BME280;69797;43.864;21.410;2023-07-13T00:37:32;99888.41;;;24.27;73.29
80482;BME280;69797;43.864;21.410;2023-07-13T00:40:00;99898.63;;;24.31;72.03
80482;BME280;69797;43.864;21.410;2023-07-13T00:42:26;99906.22;;;24.31;71.38
80482;BME280;69797;43.864;21.410;2023-07-13T00:47:30;99907.19;;;24.26;72.09
80482;BME280;69797;43.864;21.410;2023-07-13T00:49:58;99893.13;;;24.17;71.58
80482;BME280;69797;43.864;21.410;2023-07-13T00:52:25;99883.91;;;24.17;72.99
80482;BME280;69797;43.864;21.410;2023-07-13T00:54:53;99882.88;;;24.13;72.72
80482;BME280;69797;43.864;21.410;2023-07-13T00:57:20;99871.84;;;24.08;72.73
80482;BME280;69797;43.864;21.410;2023-07-13T00:59:52;99884.88;;;24.12;74.28
80482;BME280;69797;43.864;21.410;2023-07-13T01:02:23;99875.53;;;23.94;71.58
80482;BME280;69797;43.864;21.410;2023-07-13T01:04:50;99884.94;;;23.99;72.69
80482;BME280;69797;43.864;21.410;2023-07-13T01:07:18;99875.34;;;23.91;71.93
80482;BME280;69797;43.864;21.410;2023-07-13T01:09:45;99869.56;;;23.87;72.19
80482;BME280;69797;43.864;21.410;2023-07-13T01:12:15;99884.38;;;23.88;72.76
80482;BME280;69797;43.864;21.410;2023-07-13T01:14:42;99870.16;;;23.76;74.18
80482;BME280;69797;43.864;21.410;2023-07-13T01:17:10;99880.19;;;23.77;75.82
80482;BME280;69797;43.864;21.410;2023-07-13T01:19:42;99865.59;;;23.66;74.71
80482;BME280;69797;43.864;21.410;2023-07-13T01:22:18;99875.03;;;23.70;74.91
80482;BME280;69797;43.864;21.410;2023-07-13T01:24:47;99854.03;;;23.59;74.65
80482;BME280;69797;43.864;21.410;2023-07-13T01:27:16;99872.97;;;23.62;72.95
80482;BME280;69797;43.864;21.410;2023-07-13T01:29:44;99864.88;;;23.60;74.43
80482;BME280;69797;43.864;21.410;2023-07-13T01:32:19;99870.47;;;23.60;73.65
80482;BME280;69797;43.864;21.410;2023-07-13T01:34:53;99863.22;;;23.59;73.59
80482;BME280;69797;43.864;21.410;2023-07-13T01:37:24;99869.16;;;23.58;73.88
80482;BME280;69797;43.864;21.410;2023-07-13T01:39:52;99867.88;;;23.64;73.53
80482;BME280;69797;43.864;21.410;2023-07-13T01:42:19;99857.63;;;23.59;73.00
80482;BME280;69797;43.864;21.410;2023-07-13T01:44:45;99859.00;;;23.62;72.25
80482;BME280;69797;43.864;21.410;2023-07-13T01:47:12;99862.28;;;23.64;74.44
80482;BME280;69797;43.864;21.410;2023-07-13T01:49:39;99855.47;;;23.56;73.89
80482;BME280;69797;43.864;21.410;2023-07-13T01:52:06;99868.63;;;23.56;73.03
80482;BME280;69797;43.864;21.410;2023-07-13T01:54:33;99875.38;;;23.55;75.35
80482;BME280;69797;43.864;21.410;2023-07-13T01:57:00;99869.81;;;23.41;75.83
80482;BME280;69797;43.864;21.410;2023-07-13T01:59:27;99871.41;;;23.33;74.13
80482;BME280;69797;43.864;21.410;2023-07-13T02:01:54;99888.50;;;23.32;75.86
80482;BME280;69797;43.864;21.410;2023-07-13T02:04:21;99875.38;;;23.18;76.28
80482;BME280;69797;43.864;21.410;2023-07-13T02:06:48;99884.25;;;23.20;76.46
80482;BME280;69797;43.864;21.410;2023-07-13T02:09:14;99877.25;;;23.09;77.03
80482;BME280;69797;43.864;21.410;2023-07-13T02:11:41;99892.56;;;23.12;77.72
80482;BME280;69797;43.864;21.410;2023-07-13T02:14:08;99897.13;;;23.08;76.72
80482;BME280;69797;43.864;21.410;2023-07-13T02:16:35;99887.00;;;22.98;75.11
80482;BME280;69797;43.864;21.410;2023-07-13T02:19:02;99898.06;;;23.03;76.81
80482;BME280;69797;43.864;21.410;2023-07-13T02:21:29;99883.16;;;22.94;77.79
80482;BME280;69797;43.864;21.410;2023-07-13T02:23:56;99897.72;;;22.91;75.98
80482;BME280;69797;43.864;21.410;2023-07-13T02:26:24;99897.47;;;22.92;77.12
80482;BME280;69797;43.864;21.410;2023-07-13T02:28:51;99886.16;;;22.84;76.66
80482;BME280;69797;43.864;21.410;2023-07-13T02:31:19;99895.13;;;22.81;77.51
80482;BME280;69797;43.864;21.410;2023-07-13T02:33:48;99881.38;;;22.70;76.35
80482;BME280;69797;43.864;21.410;2023-07-13T02:36:15;99882.22;;;22.71;75.68
80482;BME280;69797;43.864;21.410;2023-07-13T02:38:42;99893.81;;;22.78;77.13
80482;BME280;69797;43.864;21.410;2023-07-13T02:41:09;99899.69;;;22.77;76.45
80482;BME280;69797;43.864;21.410;2023-07-13T02:43:37;99904.78;;;22.74;75.17
80482;BME280;69797;43.864;21.410;2023-07-13T02:46:04;99911.19;;;22.75;75.90
80482;BME280;69797;43.864;21.410;2023-07-13T02:48:35;99913.16;;;22.74;75.93
80482;BME280;69797;43.864;21.410;2023-07-13T02:51:03;99905.41;;;22.71;76.19
80482;BME280;69797;43.864;21.410;2023-07-13T02:53:30;99890.81;;;22.61;76.16
80482;BME280;69797;43.864;21.410;2023-07-13T02:55:57;99896.06;;;22.62;76.40
80482;BME280;69797;43.864;21.410;2023-07-13T02:58:26;99911.59;;;22.68;78.06
80482;BME280;69797;43.864;21.410;2023-07-13T03:00:55;99901.88;;;22.66;77.50
80482;BME280;69797;43.864;21.410;2023-07-13T03:03:23;99898.66;;;22.59;77.65
80482;BME280;69797;43.864;21.410;2023-07-13T03:05:59;99912.81;;;22.62;77.57
80482;BME280;69797;43.864;21.410;2023-07-13T03:08:26;99898.16;;;22.57;76.97
80482;BME280;69797;43.864;21.410;2023-07-13T03:11:07;99908.16;;;22.58;77.34
80482;BME280;69797;43.864;21.410;2023-07-13T03:13:34;99914.03;;;22.56;77.33
80482;BME280;69797;43.864;21.410;2023-07-13T03:16:01;99919.22;;;22.63;76.51
80482;BME280;69797;43.864;21.410;2023-07-13T03:18:28;99919.44;;;22.66;76.67
80482;BME280;69797;43.864;21.410;2023-07-13T03:20:55;99923.38;;;22.65;77.11
80482;BME280;69797;43.864;21.410;2023-07-13T03:23:25;99919.75;;;22.65;75.85
80482;BME280;69797;43.864;21.410;2023-07-13T03:26:08;99912.22;;;22.65;76.11
80482;BME280;69797;43.864;21.410;2023-07-13T03:28:39;99926.47;;;22.78;75.40
80482;BME280;69797;43.864;21.410;2023-07-13T03:31:13;99930.75;;;22.89;75.35
80482;BME280;69797;43.864;21.410;2023-07-13T03:33:40;99926.72;;;22.95;74.32
80482;BME280;69797;43.864;21.410;2023-07-13T03:36:17;99937.06;;;23.08;74.45
80482;BME280;69797;43.864;21.410;2023-07-13T03:38:49;99937.47;;;23.29;74.21
80482;BME280;69797;43.864;21.410;2023-07-13T03:41:16;99917.97;;;23.38;73.50
80482;BME280;69797;43.864;21.410;2023-07-13T03:43:43;99920.03;;;23.46;73.10
80482;BME280;69797;43.864;21.410;2023-07-13T03:46:10;99904.28;;;23.50;72.04
80482;BME280;69797;43.864;21.410;2023-07-13T03:48:37;99919.84;;;23.79;72.41
80482;BME280;69797;43.864;21.410;2023-07-13T03:51:06;99909.28;;;23.98;71.50
80482;BME280;69797;43.864;21.410;2023-07-13T03:53:34;99914.38;;;24.18;70.36
80482;BME280;69797;43.864;21.410;2023-07-13T03:56:06;99907.13;;;24.40;69.68
80482;BME280;69797;43.864;21.410;2023-07-13T03:58:36;99917.81;;;24.69;68.46
80482;BME280;69797;43.864;21.410;2023-07-13T04:01:05;99910.66;;;24.94;67.83
80482;BME280;69797;43.864;21.410;2023-07-13T04:03:32;99906.81;;;25.30;67.99
80482;BME280;69797;43.864;21.410;2023-07-13T04:06:01;99909.31;;;25.92;65.02
80482;BME280;69797;43.864;21.410;2023-07-13T04:08:36;99903.78;;;26.39;63.47
80482;BME280;69797;43.864;21.410;2023-07-13T04:11:04;99916.03;;;26.90;63.83
80482;BME280;69797;43.864;21.410;2023-07-13T04:13:31;99919.03;;;27.44;62.78
80482;BME280;69797;43.864;21.410;2023-07-13T04:15:58;99917.28;;;27.82;59.71
80482;BME280;69797;43.864;21.410;2023-07-13T04:18:25;99889.19;;;27.73;58.12
80482;BME280;69797;43.864;21.410;2023-07-13T04:20:52;99911.31;;;27.83;59.36
80482;BME280;69797;43.864;21.410;2023-07-13T04:23:21;99914.72;;;27.89;60.25
80482;BME280;69797;43.864;21.410;2023-07-13T04:25:49;99919.34;;;28.27;58.88
80482;BME280;69797;43.864;21.410;2023-07-13T04:28:16;99918.59;;;28.51;55.93
80482;BME280;69797;43.864;21.410;2023-07-13T04:30:44;99928.97;;;28.71;58.42
80482;BME280;69797;43.864;21.410;2023-07-13T04:33:13;99889.88;;;28.82;55.00
80482;BME280;69797;43.864;21.410;2023-07-13T04:35:40;99890.72;;;29.07;56.84
80482;BME280;69797;43.864;21.410;2023-07-13T04:38:07;99908.81;;;29.30;56.96
80482;BME280;69797;43.864;21.410;2023-07-13T04:40:33;99921.00;;;29.59;52.97
80482;BME280;69797;43.864;21.410;2023-07-13T04:43:00;99912.03;;;29.57;56.06
80482;BME280;69797;43.864;21.410;2023-07-13T04:45:27;99914.22;;;29.88;54.70
80482;BME280;69797;43.864;21.410;2023-07-13T04:47:54;99936.56;;;30.21;53.44
80482;BME280;69797;43.864;21.410;2023-07-13T04:50:21;99926.97;;;30.38;50.62
80482;BME280;69797;43.864;21.410;2023-07-13T04:52:53;99935.88;;;31.00;52.85
80482;BME280;69797;43.864;21.410;2023-07-13T04:55:20;99930.81;;;31.41;53.49
80482;BME280;69797;43.864;21.410;2023-07-13T04:57:47;99921.97;;;31.42;52.38
80482;BME280;69797;43.864;21.410;2023-07-13T05:00:14;99922.63;;;31.04;51.98
80482;BME280;69797;43.864;21.410;2023-07-13T05:02:44;99947.19;;;31.00;51.76
80482;BME280;69797;43.864;21.410;2023-07-13T05:05:13;99948.88;;;30.57;51.96
80482;BME280;69797;43.864;21.410;2023-07-13T05:07:39;99942.16;;;30.05;52.04
80482;BME280;69797;43.864;21.410;2023-07-13T05:10:07;99952.16;;;29.62;52.83
80482;BME280;69797;43.864;21.410;2023-07-13T05:12:34;99940.09;;;29.13;53.83
80482;BME280;69797;43.864;21.410;2023-07-13T05:15:04;99928.75;;;28.76;54.61
80482;BME280;69797;43.864;21.410;2023-07-13T05:17:31;99931.16;;;28.99;54.83
80482;BME280;69797;43.864;21.410;2023-07-13T05:19:57;99935.59;;;29.00;54.65
80482;BME280;69797;43.864;21.410;2023-07-13T05:22:24;99936.53;;;29.04;55.04
80482;BME280;69797;43.864;21.410;2023-07-13T05:24:51;99935.13;;;29.22;54.20
80482;BME280;69797;43.864;21.410;2023-07-13T05:27:18;99940.72;;;29.71;54.14
80482;BME280;69797;43.864;21.410;2023-07-13T05:29:45;99929.28;;;30.20;52.96
80482;BME280;69797;43.864;21.410;2023-07-13T05:32:11;99933.09;;;30.72;49.89
80482;BME280;69797;43.864;21.410;2023-07-13T05:34:38;99929.63;;;31.26;49.33
80482;BME280;69797;43.864;21.410;2023-07-13T05:37:05;99930.06;;;31.98;46.84
80482;BME280;69797;43.864;21.410;2023-07-13T05:39:32;99937.47;;;32.65;45.21
80482;BME280;69797;43.864;21.410;2023-07-13T05:41:58;99931.50;;;32.93;46.55
80482;BME280;69797;43.864;21.410;2023-07-13T05:44:25;99921.00;;;33.20;43.55
80482;BME280;69797;43.864;21.410;2023-07-13T05:46:52;99938.00;;;33.43;43.26
80482;BME280;69797;43.864;21.410;2023-07-13T05:49:19;99939.06;;;33.58;42.91
80482;BME280;69797;43.864;21.410;2023-07-13T05:51:45;99932.19;;;33.89;45.13
80482;BME280;69797;43.864;21.410;2023-07-13T05:54:12;99934.88;;;34.46;41.57
80482;BME280;69797;43.864;21.410;2023-07-13T05:56:39;99944.00;;;35.03;45.25
80482;BME280;69797;43.864;21.410;2023-07-13T05:59:06;99931.91;;;35.72;43.03
80482;BME280;69797;43.864;21.410;2023-07-13T06:01:33;99938.28;;;36.31;38.67
80482;BME280;69797;43.864;21.410;2023-07-13T06:04:00;99929.81;;;36.49;39.10
80482;BME280;69797;43.864;21.410;2023-07-13T06:06:27;99939.19;;;36.53;36.72
80482;BME280;69797;43.864;21.410;2023-07-13T06:08:56;99927.31;;;36.33;40.13
80482;BME280;69797;43.864;21.410;2023-07-13T06:11:25;99915.91;;;36.44;36.75
80482;BME280;69797;43.864;21.410;2023-07-13T06:13:53;99924.44;;;36.33;37.89
80482;BME280;69797;43.864;21.410;2023-07-13T06:16:20;99949.69;;;36.35;38.86
80482;BME280;69797;43.864;21.410;2023-07-13T06:18:50;99943.22;;;36.45;39.79
80482;BME280;69797;43.864;21.410;2023-07-13T06:21:21;99952.66;;;36.63;36.85
80482;BME280;69797;43.864;21.410;2023-07-13T06:23:49;99966.94;;;36.78;37.59
80482;BME280;69797;43.864;21.410;2023-07-13T06:26:18;99951.06;;;36.80;35.85
80482;BME280;69797;43.864;21.410;2023-07-13T06:28:45;99942.50;;;36.94;37.18
80482;BME280;69797;43.864;21.410;2023-07-13T06:31:15;99948.22;;;37.30;38.45
80482;BME280;69797;43.864;21.410;2023-07-13T06:33:43;99949.41;;;37.72;37.30
80482;BME280;69797;43.864;21.410;2023-07-13T06:36:12;99981.41;;;38.48;37.94
80482;BME280;69797;43.864;21.410;2023-07-13T06:38:39;99988.00;;;39.04;35.96
80482;BME280;69797;43.864;21.410;2023-07-13T06:41:07;99983.81;;;39.19;32.89
80482;BME280;69797;43.864;21.410;2023-07-13T06:43:35;99989.56;;;39.16;35.70
80482;BME280;69797;43.864;21.410;2023-07-13T06:46:02;99970.00;;;39.52;36.04
80482;BME280;69797;43.864;21.410;2023-07-13T06:48:28;99987.41;;;40.10;35.20
80482;BME280;69797;43.864;21.410;2023-07-13T06:50:56;99968.44;;;40.50;31.79
80482;BME280;69797;43.864;21.410;2023-07-13T06:53:23;99992.06;;;40.92;31.19
80482;BME280;69797;43.864;21.410;2023-07-13T06:55:50;99998.47;;;41.03;32.11
80482;BME280;69797;43.864;21.410;2023-07-13T06:58:18;99997.56;;;41.10;33.20
80482;BME280;69797;43.864;21.410;2023-07-13T07:00:46;99989.25;;;41.39;33.63
80482;BME280;69797;43.864;21.410;2023-07-13T07:03:15;99994.91;;;41.89;33.00
80482;BME280;69797;43.864;21.410;2023-07-13T07:05:42;99987.25;;;42.23;33.11
80482;BME280;69797;43.864;21.410;2023-07-13T07:08:09;100001.66;;;42.43;32.13
80482;BME280;69797;43.864;21.410;2023-07-13T07:10:36;100000.78;;;42.46;31.11
80482;BME280;69797;43.864;21.410;2023-07-13T07:13:03;100010.41;;;42.15;31.19
80482;BME280;69797;43.864;21.410;2023-07-13T07:15:30;99991.34;;;41.82;31.38
80482;BME280;69797;43.864;21.410;2023-07-13T07:17:59;100000.91;;;41.99;30.88
80482;BME280;69797;43.864;21.410;2023-07-13T07:20:26;99984.25;;;42.10;31.49
80482;BME280;69797;43.864;21.410;2023-07-13T07:22:53;99992.56;;;42.24;31.50
80482;BME280;69797;43.864;21.410;2023-07-13T07:25:20;99990.22;;;41.76;27.96
80482;BME280;69797;43.864;21.410;2023-07-13T07:27:47;100002.31;;;41.20;30.34
80482;BME280;69797;43.864;21.410;2023-07-13T07:30:17;99991.63;;;41.20;30.77
80482;BME280;69797;43.864;21.410;2023-07-13T07:32:49;99957.75;;;41.08;28.75
80482;BME280;69797;43.864;21.410;2023-07-13T07:35:19;99963.22;;;40.99;29.18
80482;BME280;69797;43.864;21.410;2023-07-13T07:37:46;99940.78;;;40.90;28.77
80482;BME280;69797;43.864;21.410;2023-07-13T07:40:17;99943.13;;;40.72;28.90
80482;BME280;69797;43.864;21.410;2023-07-13T07:42:47;99935.53;;;40.31;30.39
80482;BME280;69797;43.864;21.410;2023-07-13T07:45:14;99939.00;;;39.81;30.63
80482;BME280;69797;43.864;21.410;2023-07-13T07:47:41;99921.34;;;39.00;31.28
80482;BME280;69797;43.864;21.410;2023-07-13T07:50:09;99920.41;;;38.61;31.81
80482;BME280;69797;43.864;21.410;2023-07-13T07:52:36;99916.13;;;38.21;32.40
80482;BME280;69797;43.864;21.410;2023-07-13T07:55:05;99913.78;;;38.02;32.38
80482;BME280;69797;43.864;21.410;2023-07-13T07:57:35;99932.81;;;38.33;32.61
80482;BME280;69797;43.864;21.410;2023-07-13T08:00:06;99919.44;;;38.12;33.09
80482;BME280;69797;43.864;21.410;2023-07-13T08:02:35;99949.91;;;38.55;32.43
80482;BME280;69797;43.864;21.410;2023-07-13T08:05:05;99915.38;;;38.10;32.38
80482;BME280;69797;43.864;21.410;2023-07-13T08:07:39;99941.63;;;38.68;32.57
80482;BME280;69797;43.864;21.410;2023-07-13T08:10:08;99923.25;;;39.17;32.49
80482;BME280;69797;43.864;21.410;2023-07-13T08:12:38;99905.28;;;39.54;31.15
80482;BME280;69797;43.864;21.410;2023-07-13T08:15:13;99912.88;;;39.34;31.04
80482;BME280;69797;43.864;21.410;2023-07-13T08:17:40;99908.63;;;39.08;32.12
80482;BME280;69797;43.864;21.410;2023-07-13T08:20:08;99908.84;;;39.24;31.38
80482;BME280;69797;43.864;21.410;2023-07-13T08:22:35;99915.13;;;39.53;31.57
80482;BME280;69797;43.864;21.410;2023-07-13T08:25:03;99926.09;;;39.96;31.42
80482;BME280;69797;43.864;21.410;2023-07-13T08:27:30;99922.38;;;40.34;31.40
80482;BME280;69797;43.864;21.410;2023-07-13T08:29:57;99936.41;;;40.82;30.91
80482;BME280;69797;43.864;21.410;2023-07-13T08:32:24;99925.28;;;41.11;30.43
80482;BME280;69797;43.864;21.410;2023-07-13T08:34:51;99930.69;;;41.29;30.20
80482;BME280;69797;43.864;21.410;2023-07-13T08:37:19;99921.66;;;41.07;28.01
80482;BME280;69797;43.864;21.410;2023-07-13T08:39:46;99924.00;;;40.89;29.81
80482;BME280;69797;43.864;21.410;2023-07-13T08:47:32;99923.22;;;41.12;28.67
80482;BME280;69797;43.864;21.410;2023-07-13T08:50:02;99911.56;;;40.95;28.47
80482;BME280;69797;43.864;21.410;2023-07-13T08:52:33;99918.50;;;40.74;29.52
80482;BME280;69797;43.864;21.410;2023-07-13T08:55:09;99894.59;;;40.27;29.42
80482;BME280;69797;43.864;21.410;2023-07-13T08:57:39;99921.56;;;39.99;31.68
80482;BME280;69797;43.864;21.410;2023-07-13T09:00:16;99878.94;;;39.67;32.49
80482;BME280;69797;43.864;21.410;2023-07-13T09:05:14;99878.97;;;38.84;31.86
80482;BME280;69797;43.864;21.410;2023-07-13T09:10:45;99884.91;;;38.52;35.06
80482;BME280;69797;43.864;21.410;2023-07-13T09:13:30;99877.81;;;38.08;33.57
80482;BME280;69797;43.864;21.410;2023-07-13T09:16:03;99888.06;;;37.98;34.57
80482;BME280;69797;43.864;21.410;2023-07-13T09:18:38;99860.91;;;37.47;34.56
80482;BME280;69797;43.864;21.410;2023-07-13T09:21:15;99854.41;;;37.11;34.92
80482;BME280;69797;43.864;21.410;2023-07-13T09:23:47;99864.63;;;36.90;35.30
80482;BME280;69797;43.864;21.410;2023-07-13T09:26:21;99853.59;;;36.49;36.58
80482;BME280;69797;43.864;21.410;2023-07-13T09:28:51;99850.19;;;35.97;36.46
80482;BME280;69797;43.864;21.410;2023-07-13T09:31:32;99851.97;;;35.43;35.38
80482;BME280;69797;43.864;21.410;2023-07-13T09:34:00;99853.53;;;35.33;35.96
80482;BME280;69797;43.864;21.410;2023-07-13T09:36:29;99855.56;;;35.29;35.23
80482;BME280;69797;43.864;21.410;2023-07-13T09:39:42;99858.50;;;35.44;34.80
80482;BME280;69797;43.864;21.410;2023-07-13T09:42:19;99855.63;;;35.40;34.47
80482;BME280;69797;43.864;21.410;2023-07-13T09:47:31;99846.69;;;35.49;34.47
80482;BME280;69797;43.864;21.410;2023-07-13T09:52:49;99833.19;;;35.35;33.99
80482;BME280;69797;43.864;21.410;2023-07-13T09:55:29;99827.94;;;35.37;33.71
80482;BME280;69797;43.864;21.410;2023-07-13T09:57:57;99823.50;;;35.43;33.08
80482;BME280;69797;43.864;21.410;2023-07-13T10:00:28;99801.88;;;35.35;33.74
80482;BME280;69797;43.864;21.410;2023-07-13T10:03:20;99811.59;;;35.27;33.40
80482;BME280;69797;43.864;21.410;2023-07-13T10:06:00;99804.28;;;35.22;33.54
80482;BME280;69797;43.864;21.410;2023-07-13T10:08:29;99831.16;;;35.28;33.61
80482;BME280;69797;43.864;21.410;2023-07-13T10:11:09;99812.34;;;35.17;33.44
80482;BME280;69797;43.864;21.410;2023-07-13T10:13:54;99819.75;;;35.25;33.92
80482;BME280;69797;43.864;21.410;2023-07-13T10:16:28;99788.31;;;35.03;33.22
80482;BME280;69797;43.864;21.410;2023-07-13T10:19:13;99808.97;;;34.97;33.77
80482;BME280;69797;43.864;21.410;2023-07-13T10:21:58;99801.97;;;34.83;33.99
80482;BME280;69797;43.864;21.410;2023-07-13T10:24:31;99797.84;;;34.77;33.05
80482;BME280;69797;43.864;21.410;2023-07-13T10:27:31;99806.38;;;34.77;32.39
80482;BME280;69797;43.864;21.410;2023-07-13T10:30:21;99788.94;;;34.79;33.18
80482;BME280;69797;43.864;21.410;2023-07-13T10:32:50;99803.19;;;34.82;32.84
80482;BME280;69797;43.864;21.410;2023-07-13T10:35:19;99791.78;;;34.79;32.28
80482;BME280;69797;43.864;21.410;2023-07-13T10:38:04;99751.03;;;34.64;33.19
80482;BME280;69797;43.864;21.410;2023-07-13T10:40:48;99782.94;;;34.98;33.67
80482;BME280;69797;43.864;21.410;2023-07-13T10:43:36;99765.88;;;34.98;33.02
80482;BME280;69797;43.864;21.410;2023-07-13T10:46:10;99783.50;;;35.18;32.34
80482;BME280;69797;43.864;21.410;2023-07-13T10:48:39;99761.50;;;35.12;33.23
80482;BME280;69797;43.864;21.410;2023-07-13T10:51:07;99727.22;;;34.94;32.71
80482;BME280;69797;43.864;21.410;2023-07-13T10:53:36;99772.13;;;35.18;33.07
80482;BME280;69797;43.864;21.410;2023-07-13T10:56:06;99760.31;;;35.16;33.01
80482;BME280;69797;43.864;21.410;2023-07-13T10:58:43;99735.88;;;35.08;32.79
80482;BME280;69797;43.864;21.410;2023-07-13T11:01:14;99757.09;;;35.21;31.99
80482;BME280;69797;43.864;21.410;2023-07-13T11:08:56;99766.47;;;35.25;32.80
80482;BME280;69797;43.864;21.410;2023-07-13T11:18:47;99765.28;;;35.33;32.88
80482;BME280;69797;43.864;21.410;2023-07-13T11:26:50;99723.78;;;35.36;32.83
80482;BME280;69797;43.864;21.410;2023-07-13T11:31:55;99747.53;;;35.69;32.26
80482;BME280;69797;43.864;21.410;2023-07-13T11:34:29;99739.75;;;35.51;31.51
80482;BME280;69797;43.864;21.410;2023-07-13T11:36:59;99740.16;;;35.57;32.17
80482;BME280;69797;43.864;21.410;2023-07-13T11:39:31;99740.16;;;35.53;32.34
80482;BME280;69797;43.864;21.410;2023-07-13T11:42:04;99715.66;;;35.38;31.92
80482;BME280;69797;43.864;21.410;2023-07-13T11:44:35;99721.44;;;35.56;31.97
80482;BME280;69797;43.864;21.410;2023-07-13T11:47:11;99727.94;;;35.60;32.43
80482;BME280;69797;43.864;21.410;2023-07-13T11:49:45;99717.78;;;35.59;31.75
80482;BME280;69797;43.864;21.410;2023-07-13T11:52:16;99735.31;;;35.72;32.11
80482;BME280;69797;43.864;21.410;2023-07-13T11:55:13;99728.41;;;35.80;31.40
80482;BME280;69797;43.864;21.410;2023-07-13T11:58:01;99731.28;;;35.94;31.32
80482;BME280;69797;43.864;21.410;2023-07-13T12:00:31;99732.94;;;36.02;31.81
80482;BME280;69797;43.864;21.410;2023-07-13T12:03:02;99735.41;;;36.11;31.97
80482;BME280;69797;43.864;21.410;2023-07-13T12:05:31;99733.38;;;36.19;32.00
80482;BME280;69797;43.864;21.410;2023-07-13T12:08:09;99720.72;;;36.20;31.96
80482;BME280;69797;43.864;21.410;2023-07-13T12:10:57;99721.16;;;36.18;31.04
80482;BME280;69797;43.864;21.410;2023-07-13T12:13:26;99731.75;;;36.25;30.97
80482;BME280;69797;43.864;21.410;2023-07-13T12:15:56;99709.75;;;36.08;30.60
80482;BME280;69797;43.864;21.410;2023-07-13T12:18:29;99706.91;;;36.08;31.45
80482;BME280;69797;43.864;21.410;2023-07-13T12:20:58;99699.53;;;36.10;31.02
80482;BME280;69797;43.864;21.410;2023-07-13T12:23:31;99684.09;;;36.04;31.64
80482;BME280;69797;43.864;21.410;2023-07-13T12:26:02;99704.44;;;36.13;31.82
80482;BME280;69797;43.864;21.410;2023-07-13T12:28:38;99699.97;;;36.01;30.23
80482;BME280;69797;43.864;21.410;2023-07-13T12:31:19;99699.97;;;36.09;30.66
80482;BME280;69797;43.864;21.410;2023-07-13T12:33:56;99708.53;;;36.09;30.63
80482;BME280;69797;43.864;21.410;2023-07-13T12:36:24;99704.44;;;36.13;30.06
80482;BME280;69797;43.864;21.410;2023-07-13T12:38:51;99686.94;;;36.04;30.84
80482;BME280;69797;43.864;21.410;2023-07-13T12:41:18;99699.53;;;36.14;31.08
80482;BME280;69797;43.864;21.410;2023-07-13T12:43:47;99699.53;;;36.17;30.81
80482;BME280;69797;43.864;21.410;2023-07-13T12:46:23;99691.84;;;36.07;30.16
80482;BME280;69797;43.864;21.410;2023-07-13T12:48:52;99693.84;;;36.21;30.08
80482;BME280;69797;43.864;21.410;2023-07-13T12:51:40;99677.56;;;36.11;29.36
80482;BME280;69797;43.864;21.410;2023-07-13T12:54:15;99682.84;;;36.23;29.87
80482;BME280;69797;43.864;21.410;2023-07-13T12:56:43;99672.69;;;36.22;30.59
80482;BME280;69797;43.864;21.410;2023-07-13T12:59:18;99664.50;;;36.20;30.68
80482;BME280;69797;43.864;21.410;2023-07-13T13:01:46;99649.47;;;36.13;30.35
80482;BME280;69797;43.864;21.410;2023-07-13T13:04:13;99667.78;;;36.26;30.38
80482;BME280;69797;43.864;21.410;2023-07-13T13:06:40;99656.78;;;36.21;30.75
80482;BME280;69797;43.864;21.410;2023-07-13T13:09:13;99667.34;;;36.31;30.17
80482;BME280;69797;43.864;21.410;2023-07-13T13:11:41;99658.00;;;36.20;30.36
80482;BME280;69797;43.864;21.410;2023-07-13T13:14:08;99673.88;;;36.24;30.53
80482;BME280;69797;43.864;21.410;2023-07-13T13:16:46;99662.88;;;36.30;30.69
80482;BME280;69797;43.864;21.410;2023-07-13T13:21:44;99641.69;;;36.31;30.88
80482;BME280;69797;43.864;21.410;2023-07-13T13:24:17;99629.09;;;36.29;30.45
80482;BME280;69797;43.864;21.410;2023-07-13T13:26:47;99642.09;;;36.40;30.51
80482;BME280;69797;43.864;21.410;2023-07-13T13:29:17;99643.31;;;36.54;30.80
80482;BME280;69797;43.864;21.410;2023-07-13T13:31:45;99617.66;;;36.43;30.38
80482;BME280;69797;43.864;21.410;2023-07-13T13:34:15;99620.50;;;36.57;30.66
80482;BME280;69797;43.864;21.410;2023-07-13T13:36:43;99596.03;;;36.49;30.15
80482;BME280;69797;43.864;21.410;2023-07-13T13:39:24;99625.31;;;36.71;30.13
80482;BME280;69797;43.864;21.410;2023-07-13T13:41:52;99610.28;;;36.53;30.86
80482;BME280;69797;43.864;21.410;2023-07-13T13:44:21;99596.84;;;36.46;30.57
80482;BME280;69797;43.864;21.410;2023-07-13T13:46:53;99610.31;;;36.49;31.13